sensor_id;sensor_type;location;lat;lon;timestamp;P1;durP1;ratioP1;P2;durP2;ratioP2
24619;SDS011;12763;55.802;37.404;2023-04-25T00:01:46;15.80;;;7.63;;
24619;SDS011;12763;55.802;37.404;2023-04-25T00:04:12;13.98;;;6.97;;
24619;SDS011;12763;55.802;37.404;2023-04-25T00:06:38;14.63;;;6.93;;
24619;SDS011;12763;55.802;37.404;2023-04-25T00:09:05;12.40;;;6.90;;
24619;SDS011;12763;55.802;37.404;2023-04-25T00:11:36;16.42;;;7.38;;
24619;SDS011;12763;55.802;37.404;2023-04-25T00:14:03;13.45;;;6.60;;
24619;SDS011;12763;55.802;37.404;2023-04-25T00:16:30;10.50;;;6.45;;
24619;SDS011;12763;55.802;37.404;2023-04-25T00:19:00;15.85;;;6.85;;
24619;SDS011;12763;55.802;37.404;2023-04-25T00:21:27;19.00;;;7.05;;
24619;SDS011;12763;55.802;37.404;2023-04-25T00:23:54;13.07;;;6.80;;
24619;SDS011;12763;55.802;37.404;2023-04-25T00:26:21;13.27;;;7.22;;
24619;SDS011;12763;55.802;37.404;2023-04-25T00:28:47;14.68;;;6.13;;
24619;SDS011;12763;55.802;37.404;2023-04-25T00:31:13;15.35;;;6.85;;
24619;SDS011;12763;55.802;37.404;2023-04-25T00:33:40;13.13;;;7.43;;
24619;SDS011;12763;55.802;37.404;2023-04-25T00:36:06;17.35;;;7.10;;
24619;SDS011;12763;55.802;37.404;2023-04-25T00:38:32;20.25;;;7.30;;
24619;SDS011;12763;55.802;37.404;2023-04-25T00:40:59;19.63;;;7.95;;
24619;SDS011;12763;55.802;37.404;2023-04-25T00:43:26;25.08;;;9.27;;
24619;SDS011;12763;55.802;37.404;2023-04-25T00:45:52;18.52;;;8.02;;
24619;SDS011;12763;55.802;37.404;2023-04-25T00:48:20;19.27;;;9.18;;
24619;SDS011;12763;55.802;37.404;2023-04-25T00:50:51;18.85;;;8.00;;
24619;SDS011;12763;55.802;37.404;2023-04-25T00:53:22;17.95;;;8.35;;
24619;SDS011;12763;55.802;37.404;2023-04-25T00:55:49;22.75;;;7.60;;
24619;SDS011;12763;55.802;37.404;2023-04-25T00:58:18;12.73;;;6.82;;
24619;SDS011;12763;55.802;37.404;2023-04-25T01:00:46;23.42;;;8.05;;
24619;SDS011;12763;55.802;37.404;2023-04-25T01:03:16;19.17;;;7.78;;
24619;SDS011;12763;55.802;37.404;2023-04-25T01:05:45;22.20;;;7.40;;
24619;SDS011;12763;55.802;37.404;2023-04-25T01:08:12;16.20;;;6.55;;
24619;SDS011;12763;55.802;37.404;2023-04-25T01:10:38;21.70;;;7.07;;
24619;SDS011;12763;55.802;37.404;2023-04-25T01:13:04;14.77;;;6.47;;
24619;SDS011;12763;55.802;37.404;2023-04-25T01:15:30;9.85;;;5.85;;
24619;SDS011;12763;55.802;37.404;2023-04-25T01:17:56;16.90;;;6.18;;
24619;SDS011;12763;55.802;37.404;2023-04-25T01:20:23;11.63;;;5.88;;
24619;SDS011;12763;55.802;37.404;2023-04-25T01:22:50;8.93;;;5.32;;
24619;SDS011;12763;55.802;37.404;2023-04-25T01:25:18;9.13;;;5.63;;
24619;SDS011;12763;55.802;37.404;2023-04-25T01:27:45;15.43;;;6.93;;
24619;SDS011;12763;55.802;37.404;2023-04-25T01:30:12;13.45;;;5.55;;
24619;SDS011;12763;55.802;37.404;2023-04-25T01:32:40;15.07;;;6.53;;
24619;SDS011;12763;55.802;37.404;2023-04-25T01:35:09;8.95;;;5.32;;
24619;SDS011;12763;55.802;37.404;2023-04-25T01:37:40;17.48;;;5.88;;
24619;SDS011;12763;55.802;37.404;2023-04-25T01:40:08;16.48;;;6.07;;
24619;SDS011;12763;55.802;37.404;2023-04-25T01:42:36;8.73;;;5.10;;
24619;SDS011;12763;55.802;37.404;2023-04-25T01:45:05;17.33;;;5.72;;
24619;SDS011;12763;55.802;37.404;2023-04-25T01:47:32;12.57;;;5.70;;
24619;SDS011;12763;55.802;37.404;2023-04-25T01:50:01;18.65;;;5.63;;
24619;SDS011;12763;55.802;37.404;2023-04-25T01:52:29;13.75;;;5.03;;
24619;SDS011;12763;55.802;37.404;2023-04-25T01:54:56;14.05;;;5.18;;
24619;SDS011;12763;55.802;37.404;2023-04-25T01:57:26;8.98;;;5.55;;
24619;SDS011;12763;55.802;37.404;2023-04-25T01:59:57;21.23;;;5.72;;
24619;SDS011;12763;55.802;37.404;2023-04-25T02:02:40;16.33;;;5.68;;
24619;SDS011;12763;55.802;37.404;2023-04-25T02:05:24;13.85;;;5.93;;
24619;SDS011;12763;55.802;37.404;2023-04-25T02:07:51;9.00;;;5.85;;
24619;SDS011;12763;55.802;37.404;2023-04-25T02:10:16;10.68;;;5.30;;
24619;SDS011;12763;55.802;37.404;2023-04-25T02:12:54;13.85;;;5.50;;
24619;SDS011;12763;55.802;37.404;2023-04-25T02:15:49;15.02;;;5.43;;
24619;SDS011;12763;55.802;37.404;2023-04-25T02:18:17;15.70;;;5.72;;
24619;SDS011;12763;55.802;37.404;2023-04-25T02:20:44;15.43;;;5.57;;
24619;SDS011;12763;55.802;37.404;2023-04-25T02:23:11;16.05;;;6.13;;
24619;SDS011;12763;55.802;37.404;2023-04-25T02:25:36;9.95;;;6.13;;
24619;SDS011;12763;55.802;37.404;2023-04-25T02:28:02;19.33;;;6.28;;
24619;SDS011;12763;55.802;37.404;2023-04-25T02:30:28;8.57;;;5.13;;
24619;SDS011;12763;55.802;37.404;2023-04-25T02:32:54;13.63;;;5.38;;
24619;SDS011;12763;55.802;37.404;2023-04-25T02:35:20;17.00;;;5.40;;
24619;SDS011;12763;55.802;37.404;2023-04-25T02:37:46;13.40;;;6.13;;
24619;SDS011;12763;55.802;37.404;2023-04-25T02:40:12;12.70;;;6.10;;
24619;SDS011;12763;55.802;37.404;2023-04-25T02:42:38;18.13;;;5.60;;
24619;SDS011;12763;55.802;37.404;2023-04-25T02:45:04;17.05;;;5.65;;
24619;SDS011;12763;55.802;37.404;2023-04-25T02:47:31;9.07;;;5.88;;
24619;SDS011;12763;55.802;37.404;2023-04-25T02:49:56;13.48;;;5.45;;
24619;SDS011;12763;55.802;37.404;2023-04-25T02:52:22;15.50;;;5.85;;
24619;SDS011;12763;55.802;37.404;2023-04-25T02:54:56;15.15;;;6.00;;
24619;SDS011;12763;55.802;37.404;2023-04-25T02:57:22;11.25;;;5.68;;
24619;SDS011;12763;55.802;37.404;2023-04-25T02:59:48;12.07;;;6.30;;
24619;SDS011;12763;55.802;37.404;2023-04-25T03:02:15;12.55;;;6.20;;
24619;SDS011;12763;55.802;37.404;2023-04-25T03:04:41;11.95;;;6.07;;
24619;SDS011;12763;55.802;37.404;2023-04-25T03:07:07;10.98;;;6.22;;
24619;SDS011;12763;55.802;37.404;2023-04-25T03:09:33;15.45;;;5.43;;
24619;SDS011;12763;55.802;37.404;2023-04-25T03:12:00;20.42;;;6.63;;
24619;SDS011;12763;55.802;37.404;2023-04-25T03:14:27;12.85;;;6.20;;
24619;SDS011;12763;55.802;37.404;2023-04-25T03:16:53;15.27;;;6.18;;
24619;SDS011;12763;55.802;37.404;2023-04-25T03:19:19;17.55;;;6.78;;
24619;SDS011;12763;55.802;37.404;2023-04-25T03:21:47;15.70;;;6.85;;
24619;SDS011;12763;55.802;37.404;2023-04-25T03:24:13;18.63;;;5.60;;
24619;SDS011;12763;55.802;37.404;2023-04-25T03:26:39;20.70;;;6.93;;
24619;SDS011;12763;55.802;37.404;2023-04-25T03:29:05;18.70;;;6.40;;
24619;SDS011;12763;55.802;37.404;2023-04-25T03:31:31;10.40;;;5.97;;
24619;SDS011;12763;55.802;37.404;2023-04-25T03:33:58;10.50;;;5.32;;
24619;SDS011;12763;55.802;37.404;2023-04-25T03:36:24;13.15;;;5.57;;
24619;SDS011;12763;55.802;37.404;2023-04-25T03:38:50;16.23;;;6.20;;
24619;SDS011;12763;55.802;37.404;2023-04-25T03:41:17;10.30;;;5.70;;
24619;SDS011;12763;55.802;37.404;2023-04-25T03:43:46;13.93;;;5.22;;
24619;SDS011;12763;55.802;37.404;2023-04-25T03:46:13;12.75;;;5.45;;
24619;SDS011;12763;55.802;37.404;2023-04-25T03:48:40;16.45;;;6.28;;
24619;SDS011;12763;55.802;37.404;2023-04-25T03:51:08;14.43;;;5.65;;
24619;SDS011;12763;55.802;37.404;2023-04-25T03:53:37;18.88;;;6.18;;
24619;SDS011;12763;55.802;37.404;2023-04-25T03:56:19;14.40;;;6.65;;
24619;SDS011;12763;55.802;37.404;2023-04-25T03:58:51;20.20;;;5.90;;
24619;SDS011;12763;55.802;37.404;2023-04-25T04:01:19;23.27;;;6.80;;
24619;SDS011;12763;55.802;37.404;2023-04-25T04:03:46;16.90;;;6.95;;
24619;SDS011;12763;55.802;37.404;2023-04-25T04:06:12;12.25;;;6.63;;
24619;SDS011;12763;55.802;37.404;2023-04-25T04:08:41;15.10;;;6.45;;
24619;SDS011;12763;55.802;37.404;2023-04-25T04:11:09;22.30;;;7.43;;
24619;SDS011;12763;55.802;37.404;2023-04-25T04:13:36;18.17;;;6.25;;
24619;SDS011;12763;55.802;37.404;2023-04-25T04:16:02;12.55;;;7.05;;
24619;SDS011;12763;55.802;37.404;2023-04-25T04:18:30;14.77;;;6.97;;
24619;SDS011;12763;55.802;37.404;2023-04-25T04:20:56;15.52;;;6.43;;
24619;SDS011;12763;55.802;37.404;2023-04-25T04:23:24;16.38;;;6.50;;
24619;SDS011;12763;55.802;37.404;2023-04-25T04:25:52;16.10;;;6.40;;
24619;SDS011;12763;55.802;37.404;2023-04-25T04:28:37;19.70;;;6.38;;
24619;SDS011;12763;55.802;37.404;2023-04-25T04:31:21;16.65;;;8.02;;
24619;SDS011;12763;55.802;37.404;2023-04-25T04:33:47;18.50;;;6.80;;
24619;SDS011;12763;55.802;37.404;2023-04-25T04:36:14;20.70;;;7.38;;
24619;SDS011;12763;55.802;37.404;2023-04-25T04:38:41;22.63;;;7.50;;
24619;SDS011;12763;55.802;37.404;2023-04-25T04:41:12;21.55;;;7.05;;
24619;SDS011;12763;55.802;37.404;2023-04-25T04:44:00;21.70;;;8.30;;
24619;SDS011;12763;55.802;37.404;2023-04-25T04:46:41;21.55;;;8.43;;
24619;SDS011;12763;55.802;37.404;2023-04-25T04:49:29;21.55;;;9.05;;
24619;SDS011;12763;55.802;37.404;2023-04-25T04:52:15;28.30;;;8.27;;
24619;SDS011;12763;55.802;37.404;2023-04-25T04:55:00;30.83;;;9.32;;
24619;SDS011;12763;55.802;37.404;2023-04-25T04:57:55;16.83;;;8.82;;
24619;SDS011;12763;55.802;37.404;2023-04-25T05:00:31;27.38;;;9.18;;
24619;SDS011;12763;55.802;37.404;2023-04-25T05:03:09;17.58;;;7.25;;
24619;SDS011;12763;55.802;37.404;2023-04-25T05:05:55;29.42;;;8.23;;
24619;SDS011;12763;55.802;37.404;2023-04-25T05:08:43;28.35;;;8.05;;
24619;SDS011;12763;55.802;37.404;2023-04-25T05:11:09;21.65;;;7.22;;
24619;SDS011;12763;55.802;37.404;2023-04-25T05:13:51;16.23;;;7.72;;
24619;SDS011;12763;55.802;37.404;2023-04-25T05:16:37;25.65;;;7.88;;
24619;SDS011;12763;55.802;37.404;2023-04-25T05:19:22;20.83;;;6.55;;
24619;SDS011;12763;55.802;37.404;2023-04-25T05:22:11;19.80;;;7.47;;
24619;SDS011;12763;55.802;37.404;2023-04-25T05:24:50;18.20;;;6.97;;
24619;SDS011;12763;55.802;37.404;2023-04-25T05:27:35;13.32;;;7.20;;
24619;SDS011;12763;55.802;37.404;2023-04-25T05:30:01;11.80;;;6.95;;
24619;SDS011;12763;55.802;37.404;2023-04-25T05:32:33;14.70;;;7.45;;
24619;SDS011;12763;55.802;37.404;2023-04-25T05:34:59;21.38;;;7.50;;
24619;SDS011;12763;55.802;37.404;2023-04-25T05:37:34;16.40;;;6.90;;
24619;SDS011;12763;55.802;37.404;2023-04-25T05:40:10;13.20;;;6.80;;
24619;SDS011;12763;55.802;37.404;2023-04-25T05:43:11;22.27;;;7.88;;
24619;SDS011;12763;55.802;37.404;2023-04-25T05:45:55;15.20;;;7.25;;
24619;SDS011;12763;55.802;37.404;2023-04-25T05:48:45;16.92;;;8.18;;
24619;SDS011;12763;55.802;37.404;2023-04-25T05:51:32;15.63;;;8.25;;
24619;SDS011;12763;55.802;37.404;2023-04-25T05:54:30;19.42;;;8.93;;
24619;SDS011;12763;55.802;37.404;2023-04-25T05:56:56;22.23;;;8.70;;
24619;SDS011;12763;55.802;37.404;2023-04-25T05:59:22;27.30;;;9.90;;
24619;SDS011;12763;55.802;37.404;2023-04-25T06:01:48;27.85;;;10.13;;
24619;SDS011;12763;55.802;37.404;2023-04-25T06:04:14;26.33;;;9.32;;
24619;SDS011;12763;55.802;37.404;2023-04-25T06:06:40;19.60;;;10.05;;
24619;SDS011;12763;55.802;37.404;2023-04-25T06:09:07;23.15;;;8.15;;
24619;SDS011;12763;55.802;37.404;2023-04-25T06:11:32;21.08;;;9.02;;
24619;SDS011;12763;55.802;37.404;2023-04-25T06:13:58;22.75;;;8.27;;
24619;SDS011;12763;55.802;37.404;2023-04-25T06:16:24;14.32;;;8.15;;
24619;SDS011;12763;55.802;37.404;2023-04-25T06:18:51;22.02;;;7.93;;
24619;SDS011;12763;55.802;37.404;2023-04-25T06:21:17;21.23;;;7.80;;
24619;SDS011;12763;55.802;37.404;2023-04-25T06:23:43;19.92;;;8.25;;
24619;SDS011;12763;55.802;37.404;2023-04-25T06:26:12;18.90;;;7.65;;
24619;SDS011;12763;55.802;37.404;2023-04-25T06:28:41;17.85;;;7.40;;
24619;SDS011;12763;55.802;37.404;2023-04-25T06:31:08;19.45;;;6.90;;
24619;SDS011;12763;55.802;37.404;2023-04-25T06:33:35;14.73;;;7.05;;
24619;SDS011;12763;55.802;37.404;2023-04-25T06:36:02;17.17;;;6.57;;
24619;SDS011;12763;55.802;37.404;2023-04-25T06:38:30;13.60;;;6.25;;
24619;SDS011;12763;55.802;37.404;2023-04-25T06:40:57;13.20;;;6.43;;
24619;SDS011;12763;55.802;37.404;2023-04-25T06:43:26;16.33;;;6.05;;
24619;SDS011;12763;55.802;37.404;2023-04-25T06:46:02;14.38;;;6.25;;
24619;SDS011;12763;55.802;37.404;2023-04-25T06:48:31;16.33;;;6.30;;
24619;SDS011;12763;55.802;37.404;2023-04-25T06:50:58;9.45;;;5.90;;
24619;SDS011;12763;55.802;37.404;2023-04-25T06:53:24;11.57;;;6.57;;
24619;SDS011;12763;55.802;37.404;2023-04-25T06:55:57;10.50;;;6.20;;
24619;SDS011;12763;55.802;37.404;2023-04-25T06:58:27;27.05;;;6.75;;
24619;SDS011;12763;55.802;37.404;2023-04-25T07:01:03;13.05;;;5.72;;
24619;SDS011;12763;55.802;37.404;2023-04-25T07:03:29;17.40;;;5.85;;
24619;SDS011;12763;55.802;37.404;2023-04-25T07:05:59;10.82;;;5.85;;
24619;SDS011;12763;55.802;37.404;2023-04-25T07:08:25;14.63;;;6.10;;
24619;SDS011;12763;55.802;37.404;2023-04-25T07:10:51;20.08;;;6.65;;
24619;SDS011;12763;55.802;37.404;2023-04-25T07:13:17;12.98;;;6.55;;
24619;SDS011;12763;55.802;37.404;2023-04-25T07:15:43;11.82;;;6.28;;
24619;SDS011;12763;55.802;37.404;2023-04-25T07:18:10;14.55;;;6.60;;
24619;SDS011;12763;55.802;37.404;2023-04-25T07:20:36;13.95;;;6.43;;
24619;SDS011;12763;55.802;37.404;2023-04-25T07:23:02;16.25;;;6.85;;
24619;SDS011;12763;55.802;37.404;2023-04-25T07:25:28;12.52;;;5.57;;
24619;SDS011;12763;55.802;37.404;2023-04-25T07:27:56;12.93;;;5.85;;
24619;SDS011;12763;55.802;37.404;2023-04-25T07:30:25;14.75;;;5.93;;
24619;SDS011;12763;55.802;37.404;2023-04-25T07:32:50;17.90;;;6.88;;
24619;SDS011;12763;55.802;37.404;2023-04-25T07:35:16;10.40;;;5.50;;
24619;SDS011;12763;55.802;37.404;2023-04-25T07:37:43;9.68;;;5.40;;
24619;SDS011;12763;55.802;37.404;2023-04-25T07:40:12;12.48;;;5.18;;
24619;SDS011;12763;55.802;37.404;2023-04-25T07:42:45;12.00;;;5.40;;
24619;SDS011;12763;55.802;37.404;2023-04-25T07:45:15;10.00;;;5.22;;
24619;SDS011;12763;55.802;37.404;2023-04-25T07:47:41;11.43;;;5.13;;
24619;SDS011;12763;55.802;37.404;2023-04-25T07:50:08;12.20;;;5.28;;
24619;SDS011;12763;55.802;37.404;2023-04-25T07:52:34;13.07;;;5.32;;
24619;SDS011;12763;55.802;37.404;2023-04-25T07:55:08;17.25;;;6.35;;
24619;SDS011;12763;55.802;37.404;2023-04-25T07:57:50;12.85;;;5.68;;
24619;SDS011;12763;55.802;37.404;2023-04-25T08:00:16;11.80;;;5.35;;
24619;SDS011;12763;55.802;37.404;2023-04-25T08:02:49;12.57;;;5.18;;
24619;SDS011;12763;55.802;37.404;2023-04-25T08:05:17;10.23;;;5.10;;
24619;SDS011;12763;55.802;37.404;2023-04-25T08:07:47;8.63;;;4.65;;
24619;SDS011;12763;55.802;37.404;2023-04-25T08:10:13;13.52;;;5.32;;
24619;SDS011;12763;55.802;37.404;2023-04-25T08:12:39;11.13;;;4.20;;
24619;SDS011;12763;55.802;37.404;2023-04-25T08:15:07;8.40;;;4.75;;
24619;SDS011;12763;55.802;37.404;2023-04-25T08:17:37;9.70;;;5.55;;
24619;SDS011;12763;55.802;37.404;2023-04-25T08:20:02;16.58;;;6.15;;
24619;SDS011;12763;55.802;37.404;2023-04-25T08:22:32;15.73;;;6.05;;
24619;SDS011;12763;55.802;37.404;2023-04-25T08:25:15;13.02;;;5.90;;
24619;SDS011;12763;55.802;37.404;2023-04-25T08:27:41;18.45;;;5.57;;
24619;SDS011;12763;55.802;37.404;2023-04-25T08:30:08;12.35;;;5.78;;
24619;SDS011;12763;55.802;37.404;2023-04-25T08:32:37;24.80;;;5.45;;
24619;SDS011;12763;55.802;37.404;2023-04-25T08:35:33;16.42;;;5.35;;
24619;SDS011;12763;55.802;37.404;2023-04-25T08:38:00;15.30;;;5.68;;
24619;SDS011;12763;55.802;37.404;2023-04-25T08:40:27;7.47;;;5.00;;
24619;SDS011;12763;55.802;37.404;2023-04-25T08:43:08;21.60;;;6.05;;
24619;SDS011;12763;55.802;37.404;2023-04-25T08:45:41;11.00;;;4.68;;
24619;SDS011;12763;55.802;37.404;2023-04-25T08:48:11;19.38;;;6.22;;
24619;SDS011;12763;55.802;37.404;2023-04-25T08:50:39;8.82;;;5.13;;
24619;SDS011;12763;55.802;37.404;2023-04-25T08:53:15;20.17;;;5.97;;
24619;SDS011;12763;55.802;37.404;2023-04-25T08:55:46;10.10;;;4.80;;
24619;SDS011;12763;55.802;37.404;2023-04-25T08:58:12;9.70;;;4.90;;
24619;SDS011;12763;55.802;37.404;2023-04-25T09:00:39;17.17;;;5.55;;
24619;SDS011;12763;55.802;37.404;2023-04-25T09:03:05;15.07;;;5.32;;
24619;SDS011;12763;55.802;37.404;2023-04-25T09:05:33;15.48;;;5.50;;
24619;SDS011;12763;55.802;37.404;2023-04-25T09:08:00;10.23;;;4.85;;
24619;SDS011;12763;55.802;37.404;2023-04-25T09:10:27;11.52;;;5.20;;
24619;SDS011;12763;55.802;37.404;2023-04-25T09:13:24;10.75;;;5.47;;
24619;SDS011;12763;55.802;37.404;2023-04-25T09:16:08;10.05;;;4.78;;
24619;SDS011;12763;55.802;37.404;2023-04-25T09:18:43;11.80;;;5.25;;
24619;SDS011;12763;55.802;37.404;2023-04-25T09:21:10;11.25;;;4.75;;
24619;SDS011;12763;55.802;37.404;2023-04-25T09:23:44;15.77;;;5.90;;
24619;SDS011;12763;55.802;37.404;2023-04-25T09:26:15;11.18;;;5.50;;
24619;SDS011;12763;55.802;37.404;2023-04-25T09:28:44;10.57;;;5.20;;
24619;SDS011;12763;55.802;37.404;2023-04-25T09:31:12;13.98;;;5.38;;
24619;SDS011;12763;55.802;37.404;2023-04-25T09:33:45;11.35;;;4.45;;
24619;SDS011;12763;55.802;37.404;2023-04-25T09:36:11;12.20;;;4.35;;
24619;SDS011;12763;55.802;37.404;2023-04-25T09:38:58;12.85;;;4.25;;
24619;SDS011;12763;55.802;37.404;2023-04-25T09:41:37;10.35;;;5.00;;
24619;SDS011;12763;55.802;37.404;2023-04-25T09:44:03;7.93;;;4.78;;
24619;SDS011;12763;55.802;37.404;2023-04-25T09:46:35;10.65;;;4.47;;
24619;SDS011;12763;55.802;37.404;2023-04-25T09:49:07;7.75;;;4.07;;
24619;SDS011;12763;55.802;37.404;2023-04-25T09:51:57;13.02;;;5.18;;
24619;SDS011;12763;55.802;37.404;2023-04-25T09:54:27;9.80;;;4.35;;
24619;SDS011;12763;55.802;37.404;2023-04-25T09:57:07;6.90;;;3.70;;
24619;SDS011;12763;55.802;37.404;2023-04-25T09:59:44;32.05;;;3.90;;
24619;SDS011;12763;55.802;37.404;2023-04-25T10:02:11;7.20;;;4.10;;
24619;SDS011;12763;55.802;37.404;2023-04-25T10:04:39;6.60;;;3.60;;
24619;SDS011;12763;55.802;37.404;2023-04-25T10:07:15;13.93;;;4.18;;
24619;SDS011;12763;55.802;37.404;2023-04-25T10:09:44;4.60;;;3.05;;
24619;SDS011;12763;55.802;37.404;2023-04-25T10:12:16;6.03;;;3.63;;
24619;SDS011;12763;55.802;37.404;2023-04-25T10:14:42;9.50;;;3.63;;
24619;SDS011;12763;55.802;37.404;2023-04-25T10:17:09;12.45;;;4.20;;
24619;SDS011;12763;55.802;37.404;2023-04-25T10:19:39;6.50;;;4.05;;
24619;SDS011;12763;55.802;37.404;2023-04-25T10:22:08;12.90;;;4.47;;
24619;SDS011;12763;55.802;37.404;2023-04-25T10:24:38;9.52;;;4.95;;
24619;SDS011;12763;55.802;37.404;2023-04-25T10:27:05;7.75;;;4.25;;
24619;SDS011;12763;55.802;37.404;2023-04-25T10:29:31;9.25;;;4.85;;
24619;SDS011;12763;55.802;37.404;2023-04-25T10:31:57;10.75;;;4.45;;
24619;SDS011;12763;55.802;37.404;2023-04-25T10:34:24;8.15;;;4.40;;
24619;SDS011;12763;55.802;37.404;2023-04-25T10:37:04;10.55;;;5.10;;
24619;SDS011;12763;55.802;37.404;2023-04-25T10:39:29;12.57;;;5.40;;
24619;SDS011;12763;55.802;37.404;2023-04-25T10:41:56;21.50;;;5.45;;
24619;SDS011;12763;55.802;37.404;2023-04-25T10:44:26;9.35;;;5.07;;
24619;SDS011;12763;55.802;37.404;2023-04-25T10:46:57;9.90;;;4.68;;
24619;SDS011;12763;55.802;37.404;2023-04-25T10:49:37;13.90;;;5.18;;
24619;SDS011;12763;55.802;37.404;2023-04-25T10:54:53;11.65;;;4.60;;
24619;SDS011;12763;55.802;37.404;2023-04-25T11:05:09;10.68;;;4.32;;
24619;SDS011;12763;55.802;37.404;2023-04-25T11:07:44;6.15;;;3.97;;
24619;SDS011;12763;55.802;37.404;2023-04-25T11:10:16;9.68;;;4.53;;
24619;SDS011;12763;55.802;37.404;2023-04-25T11:12:41;10.60;;;3.67;;
24619;SDS011;12763;55.802;37.404;2023-04-25T11:15:07;14.10;;;4.07;;
24619;SDS011;12763;55.802;37.404;2023-04-25T11:17:34;13.30;;;3.55;;
24619;SDS011;12763;55.802;37.404;2023-04-25T11:20:00;7.35;;;3.80;;
24619;SDS011;12763;55.802;37.404;2023-04-25T11:22:26;6.97;;;3.42;;
24619;SDS011;12763;55.802;37.404;2023-04-25T11:24:53;4.55;;;3.40;;
24619;SDS011;12763;55.802;37.404;2023-04-25T11:27:19;8.30;;;3.70;;
24619;SDS011;12763;55.802;37.404;2023-04-25T11:29:46;8.00;;;3.08;;
24619;SDS011;12763;55.802;37.404;2023-04-25T11:32:15;7.65;;;2.90;;
24619;SDS011;12763;55.802;37.404;2023-04-25T11:34:42;8.13;;;3.45;;
24619;SDS011;12763;55.802;37.404;2023-04-25T11:37:10;5.13;;;2.65;;
24619;SDS011;12763;55.802;37.404;2023-04-25T11:39:37;7.05;;;3.10;;
24619;SDS011;12763;55.802;37.404;2023-04-25T11:42:03;9.23;;;3.40;;
24619;SDS011;12763;55.802;37.404;2023-04-25T11:44:31;8.77;;;3.20;;
24619;SDS011;12763;55.802;37.404;2023-04-25T11:46:57;15.85;;;3.63;;
24619;SDS011;12763;55.802;37.404;2023-04-25T11:49:23;5.28;;;3.03;;
24619;SDS011;12763;55.802;37.404;2023-04-25T11:51:50;8.10;;;3.65;;
24619;SDS011;12763;55.802;37.404;2023-04-25T11:54:16;12.45;;;4.00;;
24619;SDS011;12763;55.802;37.404;2023-04-25T11:56:42;7.10;;;3.17;;
24619;SDS011;12763;55.802;37.404;2023-04-25T11:59:09;8.35;;;3.40;;
24619;SDS011;12763;55.802;37.404;2023-04-25T12:01:36;8.00;;;2.92;;
24619;SDS011;12763;55.802;37.404;2023-04-25T12:04:13;12.45;;;3.03;;
24619;SDS011;12763;55.802;37.404;2023-04-25T12:06:42;4.32;;;2.92;;
24619;SDS011;12763;55.802;37.404;2023-04-25T12:09:12;6.03;;;3.42;;
24619;SDS011;12763;55.802;37.404;2023-04-25T12:11:48;7.07;;;3.28;;
24619;SDS011;12763;55.802;37.404;2023-04-25T12:14:36;8.20;;;3.22;;
24619;SDS011;12763;55.802;37.404;2023-04-25T12:17:03;5.00;;;3.15;;
24619;SDS011;12763;55.802;37.404;2023-04-25T12:19:33;7.10;;;3.08;;
24619;SDS011;12763;55.802;37.404;2023-04-25T12:22:00;6.97;;;3.20;;
24619;SDS011;12763;55.802;37.404;2023-04-25T12:24:28;7.30;;;3.35;;
24619;SDS011;12763;55.802;37.404;2023-04-25T12:27:02;6.07;;;3.22;;
24619;SDS011;12763;55.802;37.404;2023-04-25T12:29:30;8.32;;;3.55;;
24619;SDS011;12763;55.802;37.404;2023-04-25T12:31:57;5.93;;;2.83;;
24619;SDS011;12763;55.802;37.404;2023-04-25T12:34:24;8.68;;;3.38;;
24619;SDS011;12763;55.802;37.404;2023-04-25T12:36:51;8.13;;;3.38;;
24619;SDS011;12763;55.802;37.404;2023-04-25T12:39:18;7.95;;;3.17;;
24619;SDS011;12763;55.802;37.404;2023-04-25T12:41:50;5.78;;;2.95;;
24619;SDS011;12763;55.802;37.404;2023-04-25T12:44:20;5.20;;;2.90;;
24619;SDS011;12763;55.802;37.404;2023-04-25T12:46:47;9.43;;;2.95;;
24619;SDS011;12763;55.802;37.404;2023-04-25T12:49:14;7.65;;;2.92;;
24619;SDS011;12763;55.802;37.404;2023-04-25T12:51:40;9.85;;;2.92;;
24619;SDS011;12763;55.802;37.404;2023-04-25T12:54:07;10.70;;;3.28;;
24619;SDS011;12763;55.802;37.404;2023-04-25T12:56:34;8.63;;;3.13;;
24619;SDS011;12763;55.802;37.404;2023-04-25T12:59:01;7.80;;;3.22;;
24619;SDS011;12763;55.802;37.404;2023-04-25T13:01:28;10.02;;;3.35;;
24619;SDS011;12763;55.802;37.404;2023-04-25T13:03:55;6.18;;;3.63;;
24619;SDS011;12763;55.802;37.404;2023-04-25T13:06:21;8.57;;;3.30;;
24619;SDS011;12763;55.802;37.404;2023-04-25T13:08:47;12.32;;;3.63;;
24619;SDS011;12763;55.802;37.404;2023-04-25T13:11:14;6.25;;;3.10;;
24619;SDS011;12763;55.802;37.404;2023-04-25T13:13:40;9.50;;;3.53;;
24619;SDS011;12763;55.802;37.404;2023-04-25T13:16:08;10.35;;;3.80;;
24619;SDS011;12763;55.802;37.404;2023-04-25T13:18:34;7.75;;;3.17;;
24619;SDS011;12763;55.802;37.404;2023-04-25T13:21:01;6.63;;;3.65;;
24619;SDS011;12763;55.802;37.404;2023-04-25T13:23:27;5.68;;;2.80;;
24619;SDS011;12763;55.802;37.404;2023-04-25T13:25:55;8.57;;;3.45;;
24619;SDS011;12763;55.802;37.404;2023-04-25T13:28:24;7.82;;;3.25;;
24619;SDS011;12763;55.802;37.404;2023-04-25T13:30:50;10.38;;;3.13;;
24619;SDS011;12763;55.802;37.404;2023-04-25T13:33:17;10.82;;;3.03;;
24619;SDS011;12763;55.802;37.404;2023-04-25T13:35:46;8.00;;;3.08;;
24619;SDS011;12763;55.802;37.404;2023-04-25T13:38:23;10.48;;;3.55;;
24619;SDS011;12763;55.802;37.404;2023-04-25T13:40:50;7.90;;;3.50;;
24619;SDS011;12763;55.802;37.404;2023-04-25T13:43:21;6.25;;;2.60;;
24619;SDS011;12763;55.802;37.404;2023-04-25T13:45:48;7.78;;;3.05;;
24619;SDS011;12763;55.802;37.404;2023-04-25T13:48:14;6.43;;;2.83;;
24619;SDS011;12763;55.802;37.404;2023-04-25T13:50:40;9.48;;;2.80;;
24619;SDS011;12763;55.802;37.404;2023-04-25T13:53:07;11.45;;;3.15;;
24619;SDS011;12763;55.802;37.404;2023-04-25T13:55:34;5.57;;;3.25;;
24619;SDS011;12763;55.802;37.404;2023-04-25T13:58:02;8.43;;;3.00;;
24619;SDS011;12763;55.802;37.404;2023-04-25T14:00:33;6.43;;;2.97;;
24619;SDS011;12763;55.802;37.404;2023-04-25T14:03:00;8.00;;;3.15;;
24619;SDS011;12763;55.802;37.404;2023-04-25T14:05:30;5.40;;;2.88;;
24619;SDS011;12763;55.802;37.404;2023-04-25T14:07:56;8.73;;;3.25;;
24619;SDS011;12763;55.802;37.404;2023-04-25T14:10:21;5.32;;;3.05;;
24619;SDS011;12763;55.802;37.404;2023-04-25T14:12:47;4.32;;;2.75;;
24619;SDS011;12763;55.802;37.404;2023-04-25T14:15:13;5.20;;;2.95;;
24619;SDS011;12763;55.802;37.404;2023-04-25T14:17:39;7.80;;;2.92;;
24619;SDS011;12763;55.802;37.404;2023-04-25T14:20:05;7.47;;;3.00;;
24619;SDS011;12763;55.802;37.404;2023-04-25T14:22:33;6.03;;;3.20;;
24619;SDS011;12763;55.802;37.404;2023-04-25T14:24:59;8.52;;;2.67;;
24619;SDS011;12763;55.802;37.404;2023-04-25T14:27:25;13.15;;;3.08;;
24619;SDS011;12763;55.802;37.404;2023-04-25T14:29:52;5.82;;;3.33;;
24619;SDS011;12763;55.802;37.404;2023-04-25T14:32:17;7.68;;;3.08;;
24619;SDS011;12763;55.802;37.404;2023-04-25T14:34:43;8.40;;;2.97;;
24619;SDS011;12763;55.802;37.404;2023-04-25T14:37:09;9.68;;;2.80;;
24619;SDS011;12763;55.802;37.404;2023-04-25T14:39:35;11.80;;;3.50;;
24619;SDS011;12763;55.802;37.404;2023-04-25T14:42:02;20.80;;;4.20;;
24619;SDS011;12763;55.802;37.404;2023-04-25T14:44:28;5.90;;;2.80;;
24619;SDS011;12763;55.802;37.404;2023-04-25T14:46:53;6.05;;;3.63;;
24619;SDS011;12763;55.802;37.404;2023-04-25T14:49:20;9.40;;;2.97;;
24619;SDS011;12763;55.802;37.404;2023-04-25T14:51:46;4.40;;;2.65;;